Terminal Aerodrome Forecast
Issued by NWS Charleston, WV

Current Version | Previous Version | Graphics & Text | Print | Product List | Glossary On
Versions: 1 2 3 4 5 6 7 8 9 10 11 12 13 14 15 16 17 18 19 20 21 22
000
FTUS41 KRLX 051400 AAB
TAFHTS
TAF AMD
KHTS 051438Z 0515/0612 35008KT 1SM -SN OVC006
     FM051700 35006KT 3SM -SN BR OVC008
     FM051900 34007KT 5SM -SN BR OVC020
     FM052000 34005KT P6SM SCT030=

USA.gov is the U.S. government's official web portal to all federal, state and local government web resources and services.